CH-0003 weather

Altisurface du Glacier de Prasfleuri
Canton of Valais, Switzerland

Public forecast

Using degrees Celsius for public forecast. Weather courtesy of forecast.io.

METAR (pilot weather report)

Closest report is Sion Airport, 9.4 nm (17.4 km) N. Retrieved 2019/09/21 07:20 UTC (25 minutes ago):

LSGS 210720Z 08005KT CAVOK 13/10 Q1021

TAF (pilot weather forecast)

Forecast is more than 12 hours old.

Closest forecast is Payerne Air Base, 50.2 nm (92.9 km) NNW. Retrieved 2019/09/20 17:00 UTC (15 hours ago):

TAF LSMP 201625Z 2017/2123 04004KT CAVOK